KBTP

Pittsburgh / Butler Regional Airport

Butler, Pennsylvania, USA
METAR KBTP 221456Z AUTO 22010G17KT 10SM CLR 07/00 A3017 RMK AO2 SLP233 T00720000 58009
Observed Flight Rules
Oct-22 @ 14:56 UTC (30 minutes ago) Visual Flight Rules
Wind Visibility Clouds
220° at 10 knots
 Gusting to 17 knots
10 miles
  • Clear skies
Temperatures Readings
Current 7°C / 45°F
Dewpoint 0°C / 32°F
Humidity 61%
Altimeter 30.17" Hg
Pressure 1023.3 hPa
Elevation 380
METAR KBTP 221456Z AUTO 22010G17KT 10SM CLR 07/00 A3017 RMK AO2 SLP233 T00720000 58009
Observed Flight Rules
Oct-22 @ 14:56 UTC
(30 minutes ago)
VFR
Wind Visibility
220° at 10 knots
 Gusting to 17 knots
10 miles
Clouds
  • Clear skies
Temperature Dewpoint
7°C / 45°F 0°C / 32°F
Humidity Altimeter Pressure
61% 30.17" Hg 1023.3 hPa